createdAt,value
2016-09-06T00:00:55.517Z,0
2016-09-06T00:01:55.542Z,0
2016-09-06T00:02:55.791Z,0
2016-09-06T00:03:55.507Z,0
2016-09-06T00:04:55.525Z,0
2016-09-06T00:05:55.551Z,0
2016-09-06T00:06:55.888Z,0
2016-09-06T00:07:55.601Z,0
2016-09-06T00:08:55.619Z,0
2016-09-06T00:09:55.643Z,0
2016-09-06T00:10:55.667Z,0
2016-09-06T00:11:55.694Z,0
2016-09-06T00:12:55.721Z,0
2016-09-06T00:13:55.743Z,0
2016-09-06T00:14:55.762Z,0
2016-09-06T00:15:55.791Z,0
2016-09-06T00:16:55.807Z,0
2016-09-06T00:17:55.834Z,0
2016-09-06T00:18:55.855Z,0
2016-09-06T00:19:55.881Z,0
2016-09-06T00:20:55.903Z,0
2016-09-06T00:21:55.923Z,0
2016-09-06T00:22:55.955Z,0
2016-09-06T00:23:55.973Z,0
2016-09-06T00:24:55.999Z,0
2016-09-06T00:25:56.020Z,0
2016-09-06T00:26:56.051Z,0
2016-09-06T00:27:56.070Z,0
2016-09-06T00:28:56.094Z,0
2016-09-06T00:29:56.431Z,0
2016-09-06T00:30:56.157Z,0
2016-09-06T00:31:56.163Z,0
2016-09-06T00:32:56.194Z,0
2016-09-06T00:33:56.205Z,0
2016-09-06T00:34:56.235Z,0
2016-09-06T00:35:56.257Z,0
2016-09-06T00:36:56.284Z,0
2016-09-06T00:37:56.302Z,0
2016-09-06T00:38:56.329Z,0
2016-09-06T00:39:56.351Z,0
2016-09-06T00:40:56.377Z,0
2016-09-06T00:41:56.751Z,0
2016-09-06T00:42:56.425Z,0
2016-09-06T00:43:56.580Z,0
2016-09-06T00:44:56.587Z,0
2016-09-06T00:45:56.597Z,0
2016-09-06T00:46:56.620Z,0
2016-09-06T00:47:56.628Z,0
2016-09-06T00:48:56.674Z,0
2016-09-06T00:49:56.682Z,0
2016-09-06T00:50:56.707Z,0
2016-09-06T00:51:56.716Z,0
2016-09-06T00:52:56.726Z,0
2016-09-06T00:53:56.733Z,0
2016-09-06T00:54:56.741Z,0
2016-09-06T00:55:56.741Z,0
2016-09-06T00:56:57.089Z,0
2016-09-06T00:57:56.874Z,0
2016-09-06T00:58:56.883Z,0
2016-09-06T00:59:56.916Z,0
2016-09-06T01:00:56.915Z,0
2016-09-06T01:01:56.888Z,0
2016-09-06T01:02:56.909Z,0
2016-09-06T01:03:56.937Z,0
2016-09-06T01:04:56.954Z,0
2016-09-06T01:05:56.980Z,0
2016-09-06T01:06:57.003Z,0
2016-09-06T01:07:57.034Z,0
2016-09-06T01:08:57.049Z,0
2016-09-06T01:09:57.080Z,0
2016-09-06T01:10:57.110Z,0
2016-09-06T01:11:57.128Z,0
2016-09-06T01:12:57.143Z,0
2016-09-06T01:13:57.169Z,0
2016-09-06T01:14:57.193Z,0
2016-09-06T01:15:57.217Z,0
2016-09-06T01:16:57.239Z,0
2016-09-06T01:17:57.261Z,0
2016-09-06T01:18:57.295Z,0
2016-09-06T01:19:57.309Z,0
2016-09-06T01:20:57.345Z,0
2016-09-06T01:21:57.360Z,0
2016-09-06T01:22:57.381Z,0
2016-09-06T01:23:57.422Z,0
2016-09-06T01:24:57.751Z,0
2016-09-06T01:25:57.455Z,0
2016-09-06T01:26:57.475Z,0
2016-09-06T01:27:57.498Z,0
2016-09-06T01:28:57.517Z,0
2016-09-06T01:29:57.557Z,0
2016-09-06T01:30:57.573Z,0
2016-09-06T01:31:57.591Z,0
2016-09-06T01:32:57.618Z,0
2016-09-06T01:33:57.639Z,0
2016-09-06T01:34:57.673Z,0
2016-09-06T01:35:57.691Z,0
2016-09-06T01:36:57.714Z,0
2016-09-06T01:37:57.737Z,0
2016-09-06T01:38:57.758Z,0
2016-09-06T01:39:57.782Z,0
2016-09-06T01:40:57.801Z,0
2016-09-06T01:41:57.827Z,0
2016-09-06T01:42:57.878Z,0
2016-09-06T01:43:57.876Z,0
2016-09-06T01:44:57.898Z,0
2016-09-06T01:45:57.919Z,0
2016-09-06T01:46:57.950Z,0
2016-09-06T01:47:57.961Z,0
2016-09-06T01:48:57.986Z,0
2016-09-06T01:49:58.008Z,0
2016-09-06T01:50:58.060Z,0
2016-09-06T01:51:58.056Z,0
2016-09-06T01:52:58.100Z,0
2016-09-06T01:53:58.534Z,0
2016-09-06T01:54:58.140Z,0
2016-09-06T01:55:58.149Z,0
2016-09-06T01:56:58.178Z,0
2016-09-06T01:57:58.221Z,0
2016-09-06T01:58:58.222Z,0
2016-09-06T01:59:58.254Z,0
2016-09-06T02:00:58.280Z,0
2016-09-06T02:01:58.292Z,0
2016-09-06T02:02:58.321Z,0
2016-09-06T02:03:58.350Z,0
2016-09-06T02:04:58.368Z,0
2016-09-06T02:05:58.387Z,0
2016-09-06T02:06:58.521Z,0
2016-09-06T02:07:58.522Z,0
2016-09-06T02:08:58.704Z,0
2016-09-06T02:09:58.713Z,0
2016-09-06T02:10:58.712Z,0
2016-09-06T02:11:58.728Z,0
2016-09-06T02:12:58.737Z,0
2016-09-06T02:13:58.747Z,0
2016-09-06T02:14:58.752Z,0
2016-09-06T02:15:58.751Z,0
2016-09-06T02:16:58.764Z,0
2016-09-06T02:17:58.809Z,0
2016-09-06T02:18:58.818Z,0
2016-09-06T02:19:58.818Z,0
2016-09-06T02:20:58.825Z,0
2016-09-06T02:21:58.834Z,0
2016-09-06T02:22:58.884Z,0
2016-09-06T02:23:58.895Z,0
2016-09-06T02:24:58.918Z,0
2016-09-06T02:25:59.167Z,0
2016-09-06T02:26:58.933Z,0
2016-09-06T02:27:58.941Z,0
2016-09-06T02:28:58.951Z,0
2016-09-06T02:29:58.952Z,0
2016-09-06T02:30:58.976Z,0
2016-09-06T02:31:58.994Z,0
2016-09-06T02:32:59.012Z,0
2016-09-06T02:33:59.036Z,0
2016-09-06T02:34:59.074Z,0
2016-09-06T02:35:59.082Z,0
2016-09-06T02:36:59.111Z,0
2016-09-06T02:37:59.133Z,0
2016-09-06T02:38:59.153Z,0
2016-09-06T02:39:59.184Z,0
2016-09-06T02:40:59.199Z,0
2016-09-06T02:41:59.225Z,0
2016-09-06T02:42:59.249Z,0
2016-09-06T02:43:59.269Z,0
2016-09-06T02:44:59.293Z,0
2016-09-06T02:45:59.319Z,0
2016-09-06T02:46:59.337Z,0
2016-09-06T02:47:59.364Z,0
2016-09-06T02:48:59.389Z,0
2016-09-06T02:49:59.411Z,0
2016-09-06T02:50:59.437Z,0
2016-09-06T02:51:59.459Z,0
2016-09-06T02:52:59.480Z,0
2016-09-06T02:53:59.502Z,0
2016-09-06T02:54:59.529Z,0
2016-09-06T02:55:59.561Z,0
2016-09-06T02:56:59.888Z,0
2016-09-06T02:57:59.589Z,0
2016-09-06T02:58:59.618Z,0
2016-09-06T02:59:59.656Z,0
2016-09-06T03:00:59.665Z,0
2016-09-06T03:01:59.689Z,0
2016-09-06T03:02:59.717Z,0
2016-09-06T03:03:59.730Z,0
2016-09-06T03:04:59.765Z,0
2016-09-06T03:05:59.776Z,0
2016-09-06T03:06:59.809Z,0
2016-09-06T03:07:59.822Z,0
2016-09-06T03:08:59.853Z,0
2016-09-06T03:09:59.865Z,0
2016-09-06T03:10:59.912Z,0
2016-09-06T03:12:00.238Z,0
2016-09-06T03:12:59.946Z,0
2016-09-06T03:13:59.970Z,0
2016-09-06T03:15:00.301Z,0
2016-09-06T03:16:00.010Z,0
2016-09-06T03:17:00.035Z,0
2016-09-06T03:18:00.061Z,0
2016-09-06T03:19:00.081Z,0
2016-09-06T03:20:00.103Z,0
2016-09-06T03:21:00.133Z,0
2016-09-06T03:22:00.150Z,0
2016-09-06T03:23:00.174Z,0
2016-09-06T03:24:00.189Z,0
2016-09-06T03:25:00.230Z,0
2016-09-06T03:26:00.265Z,0
2016-09-06T03:27:00.269Z,0
2016-09-06T03:28:00.292Z,0
2016-09-06T03:29:00.314Z,0
2016-09-06T03:30:00.341Z,0
2016-09-06T03:31:00.358Z,0
2016-09-06T03:32:00.392Z,0
2016-09-06T03:33:00.401Z,0
2016-09-06T03:34:00.429Z,0
2016-09-06T03:35:00.554Z,0
2016-09-06T03:36:00.561Z,0
2016-09-06T03:37:00.734Z,0
2016-09-06T03:38:00.736Z,0
2016-09-06T03:39:00.749Z,0
2016-09-06T03:40:00.753Z,0
2016-09-06T03:41:00.758Z,0
2016-09-06T03:42:00.771Z,0
2016-09-06T03:43:00.780Z,0
2016-09-06T03:44:00.784Z,0
2016-09-06T03:45:00.786Z,0
2016-09-06T03:46:00.796Z,0
2016-09-06T03:47:00.846Z,0
2016-09-06T03:48:00.854Z,0
2016-09-06T03:49:00.850Z,0
2016-09-06T03:50:00.893Z,0
2016-09-06T03:51:00.904Z,0
2016-09-06T03:52:00.909Z,0
2016-09-06T03:53:00.944Z,0
2016-09-06T03:54:00.946Z,0
2016-09-06T03:55:00.960Z,0
2016-09-06T03:56:00.964Z,0
2016-09-06T03:57:00.972Z,0
2016-09-06T03:58:00.980Z,0
2016-09-06T03:59:01.319Z,0
2016-09-06T04:00:01.030Z,0
2016-09-06T04:01:01.055Z,0
2016-09-06T04:02:01.068Z,0
2016-09-06T04:03:01.120Z,0
2016-09-06T04:04:01.116Z,0
2016-09-06T04:05:01.159Z,0
2016-09-06T04:06:01.166Z,0
2016-09-06T04:07:01.503Z,0
2016-09-06T04:08:01.288Z,0
2016-09-06T04:09:01.245Z,0
2016-09-06T04:10:01.257Z,0
2016-09-06T04:11:01.278Z,0
2016-09-06T04:12:01.300Z,0
2016-09-06T04:13:01.323Z,0
2016-09-06T04:14:01.354Z,0
2016-09-06T04:15:01.364Z,0
2016-09-06T04:16:01.396Z,0
2016-09-06T04:17:01.409Z,0
2016-09-06T04:18:01.457Z,0
2016-09-06T04:19:01.455Z,0
2016-09-06T04:20:01.483Z,0
2016-09-06T04:21:01.502Z,0
2016-09-06T04:22:01.545Z,0
2016-09-06T04:23:01.557Z,0
2016-09-06T04:24:01.575Z,0
2016-09-06T04:25:01.606Z,0
2016-09-06T04:26:01.631Z,0
2016-09-06T04:27:02.060Z,0
2016-09-06T04:28:01.687Z,0
2016-09-06T04:29:01.686Z,0
2016-09-06T04:30:01.728Z,0
2016-09-06T04:31:01.757Z,0
2016-09-06T04:32:02.073Z,0
2016-09-06T04:33:01.778Z,0
2016-09-06T04:34:01.814Z,0
2016-09-06T04:35:01.831Z,0
2016-09-06T04:36:01.858Z,0
2016-09-06T04:37:01.875Z,0
2016-09-06T04:38:01.912Z,0
2016-09-06T04:39:01.934Z,0
2016-09-06T04:40:01.957Z,0
2016-09-06T04:41:01.970Z,0
2016-09-06T04:42:01.987Z,0
2016-09-06T04:43:02.012Z,0
2016-09-06T04:44:02.042Z,0
2016-09-06T04:45:02.058Z,0
2016-09-06T04:46:02.079Z,0
2016-09-06T04:47:02.102Z,0
2016-09-06T04:48:02.129Z,0
2016-09-06T04:49:02.151Z,0
2016-09-06T04:50:02.168Z,0
2016-09-06T04:51:02.197Z,0
2016-09-06T04:52:02.214Z,0
2016-09-06T04:53:02.248Z,0
2016-09-06T04:54:02.265Z,0
2016-09-06T04:55:02.290Z,0
2016-09-06T04:56:02.312Z,0
2016-09-06T04:57:02.459Z,0
2016-09-06T04:58:02.483Z,0
2016-09-06T04:59:02.464Z,0
2016-09-06T05:00:02.628Z,0
2016-09-06T05:01:02.639Z,0
2016-09-06T05:02:02.640Z,0
2016-09-06T05:03:02.652Z,0
2016-09-06T05:04:02.676Z,0
2016-09-06T05:05:02.671Z,0
2016-09-06T05:06:02.693Z,0
2016-09-06T05:07:02.679Z,0
2016-09-06T05:08:02.683Z,0
2016-09-06T05:09:02.694Z,0
2016-09-06T05:10:02.752Z,0
2016-09-06T05:11:02.747Z,0
2016-09-06T05:12:02.767Z,0
2016-09-06T05:13:02.800Z,0
2016-09-06T05:14:03.138Z,0
2016-09-06T05:15:02.822Z,0
2016-09-06T05:16:02.840Z,0
2016-09-06T05:17:02.848Z,0
2016-09-06T05:18:02.862Z,0
2016-09-06T05:19:02.865Z,0
2016-09-06T05:20:02.884Z,0
2016-09-06T05:21:02.885Z,0
2016-09-06T05:22:03.231Z,0
2016-09-06T05:23:02.923Z,0
2016-09-06T05:24:02.953Z,0
2016-09-06T05:25:02.977Z,0
2016-09-06T05:26:03.033Z,0
2016-09-06T05:27:03.017Z,0
2016-09-06T05:28:03.045Z,0
2016-09-06T05:29:03.078Z,0
2016-09-06T05:30:03.085Z,0
2016-09-06T05:31:03.110Z,0
2016-09-06T05:32:03.144Z,0
2016-09-06T05:33:03.157Z,0
2016-09-06T05:34:03.191Z,5
2016-09-06T05:35:03.222Z,5
2016-09-06T05:36:03.543Z,5
2016-09-06T05:37:03.253Z,5
2016-09-06T05:38:03.277Z,5
2016-09-06T05:39:03.298Z,5
2016-09-06T05:40:03.346Z,5
2016-09-06T05:41:03.340Z,5
2016-09-06T05:42:03.378Z,5
2016-09-06T05:43:03.386Z,5
2016-09-06T05:44:03.416Z,5
2016-09-06T05:45:03.425Z,5
2016-09-06T05:46:03.461Z,5
2016-09-06T05:47:03.482Z,5
2016-09-06T05:48:03.558Z,5
2016-09-06T05:49:03.522Z,5
2016-09-06T05:50:03.549Z,5
2016-09-06T05:51:03.585Z,5
2016-09-06T05:52:03.596Z,5
2016-09-06T05:53:03.623Z,5
2016-09-06T05:54:03.638Z,5
2016-09-06T05:55:03.672Z,5
2016-09-06T05:56:03.679Z,5
2016-09-06T05:57:03.708Z,5
2016-09-06T05:58:03.730Z,5
2016-09-06T05:59:03.763Z,5
2016-09-06T06:00:03.773Z,5
2016-09-06T06:01:03.802Z,5
2016-09-06T06:02:03.834Z,5
2016-09-06T06:03:03.849Z,5
2016-09-06T06:04:03.870Z,10
2016-09-06T06:05:03.903Z,10
2016-09-06T06:06:03.917Z,10
2016-09-06T06:07:03.939Z,10
2016-09-06T06:08:03.963Z,10
2016-09-06T06:09:03.987Z,10
2016-09-06T06:10:04.008Z,10
2016-09-06T06:11:04.028Z,10
2016-09-06T06:12:04.052Z,10
2016-09-06T06:13:04.077Z,10
2016-09-06T06:14:04.099Z,10
2016-09-06T06:15:04.120Z,10
2016-09-06T06:16:04.150Z,10
2016-09-06T06:17:04.167Z,10
2016-09-06T06:18:04.195Z,10
2016-09-06T06:19:04.209Z,10
2016-09-06T06:20:04.276Z,10
2016-09-06T06:21:04.255Z,10
2016-09-06T06:22:04.292Z,10
2016-09-06T06:23:04.731Z,10
2016-09-06T06:24:04.334Z,10
2016-09-06T06:25:04.350Z,10
2016-09-06T06:26:04.492Z,10
2016-09-06T06:27:04.498Z,10
2016-09-06T06:28:04.508Z,10
2016-09-06T06:29:04.983Z,10
2016-09-06T06:30:04.690Z,10
2016-09-06T06:31:04.683Z,10
2016-09-06T06:32:04.690Z,10
2016-09-06T06:33:04.702Z,10
2016-09-06T06:34:04.709Z,10
2016-09-06T06:35:04.720Z,10
2016-09-06T06:36:04.733Z,10
2016-09-06T06:37:04.729Z,10
2016-09-06T06:38:04.893Z,10
2016-09-06T06:39:04.788Z,10
2016-09-06T06:40:04.787Z,10
2016-09-06T06:41:04.791Z,10
2016-09-06T06:42:05.154Z,10
2016-09-06T06:43:04.846Z,10
2016-09-06T06:44:04.895Z,10
2016-09-06T06:45:04.881Z,10
2016-09-06T06:46:04.903Z,10
2016-09-06T06:47:04.904Z,10
2016-09-06T06:48:04.910Z,15
2016-09-06T06:49:04.918Z,15
2016-09-06T06:50:04.940Z,15
2016-09-06T06:51:04.954Z,10
2016-09-06T06:52:05.307Z,15
2016-09-06T06:53:05.003Z,15
2016-09-06T06:54:05.029Z,15
2016-09-06T06:55:05.056Z,15
2016-09-06T06:56:05.074Z,15
2016-09-06T06:57:05.098Z,15
2016-09-06T06:58:05.132Z,10
2016-09-06T06:59:05.148Z,10
2016-09-06T07:00:05.179Z,10
2016-09-06T07:01:05.195Z,10
2016-09-06T07:02:05.212Z,10
2016-09-06T07:03:05.233Z,10
2016-09-06T07:04:05.274Z,10
2016-09-06T07:05:05.283Z,10
2016-09-06T07:06:05.321Z,10
2016-09-06T07:07:05.334Z,10
2016-09-06T07:08:05.362Z,10
2016-09-06T07:09:05.383Z,10
2016-09-06T07:10:05.399Z,10
2016-09-06T07:11:05.431Z,10
2016-09-06T07:12:05.456Z,10
2016-09-06T07:13:05.583Z,10
2016-09-06T07:14:05.576Z,10
2016-09-06T07:15:05.521Z,10
2016-09-06T07:16:05.544Z,10
2016-09-06T07:17:05.565Z,10
2016-09-06T07:18:05.593Z,5
2016-09-06T07:19:05.630Z,5
2016-09-06T07:20:05.642Z,10
2016-09-06T07:21:05.971Z,10
2016-09-06T07:22:05.681Z,10
2016-09-06T07:23:05.710Z,10
2016-09-06T07:24:05.728Z,10
2016-09-06T07:25:05.748Z,10
2016-09-06T07:26:05.798Z,10
2016-09-06T07:27:05.795Z,10
2016-09-06T07:28:05.818Z,10
2016-09-06T07:29:05.848Z,10
2016-09-06T07:30:05.865Z,10
2016-09-06T07:31:05.899Z,10
2016-09-06T07:32:05.911Z,10
2016-09-06T07:33:05.940Z,10
2016-09-06T07:34:05.963Z,10
2016-09-06T07:35:06.302Z,15
2016-09-06T07:36:06.013Z,15
2016-09-06T07:37:06.030Z,15
2016-09-06T07:38:06.061Z,15
2016-09-06T07:39:06.084Z,15
2016-09-06T07:40:06.099Z,15
2016-09-06T07:41:06.127Z,15
2016-09-06T07:42:06.157Z,20
2016-09-06T07:43:06.172Z,20
2016-09-06T07:44:06.226Z,20
2016-09-06T07:45:06.535Z,20
2016-09-06T07:46:06.248Z,15
2016-09-06T07:47:06.272Z,15
2016-09-06T07:48:06.606Z,15
2016-09-06T07:49:06.318Z,15
2016-09-06T07:50:06.337Z,15
2016-09-06T07:51:06.359Z,20
2016-09-06T07:52:06.386Z,20
2016-09-06T07:53:06.403Z,20
2016-09-06T07:54:06.544Z,20
2016-09-06T07:55:06.551Z,20
2016-09-06T07:56:06.719Z,20
2016-09-06T07:57:06.718Z,20
2016-09-06T07:58:06.726Z,20
2016-09-06T07:59:06.734Z,20
2016-09-06T08:00:06.737Z,20
2016-09-06T08:01:06.739Z,20
2016-09-06T08:02:06.760Z,20
2016-09-06T08:03:06.761Z,25
2016-09-06T08:04:06.761Z,25
2016-09-06T08:05:06.895Z,25
2016-09-06T08:06:07.221Z,25
2016-09-06T08:07:06.919Z,25
2016-09-06T08:08:06.859Z,20
2016-09-06T08:09:06.863Z,20
2016-09-06T08:10:06.922Z,20
2016-09-06T08:11:06.908Z,20
2016-09-06T08:12:06.941Z,20
2016-09-06T08:13:06.926Z,20
2016-09-06T08:14:06.924Z,20
2016-09-06T08:15:06.944Z,20
2016-09-06T08:16:06.962Z,20
2016-09-06T08:17:06.980Z,20
2016-09-06T08:18:07.047Z,25
2016-09-06T08:19:07.037Z,25
2016-09-06T08:20:07.052Z,25
2016-09-06T08:21:07.075Z,25
2016-09-06T08:22:07.101Z,25
2016-09-06T08:23:07.124Z,25
2016-09-06T08:24:07.162Z,25
2016-09-06T08:25:07.487Z,25
2016-09-06T08:26:07.259Z,25
2016-09-06T08:27:07.221Z,20
2016-09-06T08:28:07.247Z,20
2016-09-06T08:29:07.267Z,20
2016-09-06T08:30:07.308Z,20
2016-09-06T08:31:07.334Z,20
2016-09-06T08:32:07.357Z,20
2016-09-06T08:33:07.367Z,20
2016-09-06T08:34:07.395Z,20
2016-09-06T08:35:07.407Z,25
2016-09-06T08:36:07.435Z,25
2016-09-06T08:37:07.768Z,25
2016-09-06T08:38:07.487Z,20
2016-09-06T08:39:07.500Z,25
2016-09-06T08:40:07.540Z,25
2016-09-06T08:41:07.598Z,25
2016-09-06T08:42:07.576Z,20
2016-09-06T08:43:07.603Z,20
2016-09-06T08:44:07.634Z,20
2016-09-06T08:45:07.649Z,20
2016-09-06T08:46:08.014Z,20
2016-09-06T08:47:07.700Z,15
2016-09-06T08:48:07.720Z,15
2016-09-06T08:49:07.745Z,15
2016-09-06T08:50:07.792Z,15
2016-09-06T08:51:07.791Z,15
2016-09-06T08:52:07.829Z,15
2016-09-06T08:53:07.845Z,20
2016-09-06T08:54:07.993Z,20
2016-09-06T08:55:08.103Z,25
2016-09-06T08:56:07.982Z,30
2016-09-06T08:57:07.982Z,30
2016-09-06T08:58:07.997Z,30
2016-09-06T08:59:08.013Z,30
2016-09-06T09:00:08.153Z,30
2016-09-06T09:01:08.160Z,25
2016-09-06T09:02:08.152Z,25
2016-09-06T09:03:08.186Z,25
2016-09-06T09:04:08.539Z,20
2016-09-06T09:05:08.203Z,25
2016-09-06T09:06:08.212Z,30
2016-09-06T09:07:08.221Z,35
2016-09-06T09:08:08.264Z,35
2016-09-06T09:09:08.269Z,30
2016-09-06T09:10:08.276Z,25
2016-09-06T09:11:08.286Z,30
2016-09-06T09:12:08.612Z,30
2016-09-06T09:13:08.330Z,35
2016-09-06T09:14:08.665Z,35
2016-09-06T09:15:08.378Z,35
2016-09-06T09:16:08.399Z,35
2016-09-06T09:17:08.431Z,35
2016-09-06T09:18:08.446Z,35
2016-09-06T09:19:08.477Z,40
2016-09-06T09:20:08.499Z,40
2016-09-06T09:21:08.528Z,40
2016-09-06T09:22:08.551Z,35
2016-09-06T09:23:08.576Z,25
2016-09-06T09:24:08.598Z,25
2016-09-06T09:25:08.627Z,30
2016-09-06T09:26:08.644Z,35
2016-09-06T09:27:08.673Z,40
2016-09-06T09:28:08.703Z,30
2016-09-06T09:29:08.721Z,20
2016-09-06T09:30:08.752Z,20
2016-09-06T09:31:08.774Z,25
2016-09-06T09:32:09.111Z,30
2016-09-06T09:33:09.157Z,30
2016-09-06T09:34:08.845Z,30
2016-09-06T09:35:08.877Z,20
2016-09-06T09:36:08.940Z,20
2016-09-06T09:37:08.917Z,20
2016-09-06T09:38:08.945Z,20
2016-09-06T09:39:08.973Z,25
2016-09-06T09:40:08.997Z,30
2016-09-06T09:41:09.015Z,40
2016-09-06T09:42:09.052Z,40
2016-09-06T09:43:09.069Z,40
2016-09-06T09:44:09.102Z,40
2016-09-06T09:45:09.120Z,35
2016-09-06T09:46:09.145Z,35
2016-09-06T09:47:09.166Z,30
2016-09-06T09:48:09.267Z,25
2016-09-06T09:49:09.214Z,20
2016-09-06T09:50:09.253Z,20
2016-09-06T09:51:09.267Z,25
2016-09-06T09:52:09.309Z,30
2016-09-06T09:53:09.318Z,30
2016-09-06T09:54:09.345Z,30
2016-09-06T09:55:09.373Z,30
2016-09-06T09:56:09.406Z,35
2016-09-06T09:57:09.418Z,45
2016-09-06T09:58:09.494Z,45
2016-09-06T09:59:09.476Z,45
2016-09-06T10:00:09.491Z,45
2016-09-06T10:01:09.525Z,45
2016-09-06T10:02:09.554Z,50
2016-09-06T10:03:09.568Z,45
2016-09-06T10:04:09.597Z,40
2016-09-06T10:05:09.612Z,45
2016-09-06T10:06:09.648Z,45
2016-09-06T10:07:09.669Z,45
2016-09-06T10:08:09.691Z,45
2016-09-06T10:09:09.714Z,45
2016-09-06T10:10:09.749Z,45
2016-09-06T10:11:09.766Z,45
2016-09-06T10:12:09.801Z,45
2016-09-06T10:13:09.826Z,40
2016-09-06T10:14:09.957Z,35
2016-09-06T10:15:09.977Z,40
2016-09-06T10:16:10.012Z,35
2016-09-06T10:17:10.150Z,20
2016-09-06T10:18:10.157Z,20
2016-09-06T10:19:10.173Z,20
2016-09-06T10:20:10.181Z,15
2016-09-06T10:21:10.191Z,15
2016-09-06T10:22:10.190Z,20
2016-09-06T10:23:10.199Z,20
2016-09-06T10:24:10.248Z,20
2016-09-06T10:25:10.247Z,20
2016-09-06T10:26:10.566Z,20
2016-09-06T10:27:10.264Z,20
2016-09-06T10:28:10.274Z,20
2016-09-06T10:29:10.325Z,25
2016-09-06T10:30:10.339Z,20
2016-09-06T10:31:10.350Z,20
2016-09-06T10:32:10.358Z,25
2016-09-06T10:33:10.510Z,35
2016-09-06T10:34:10.379Z,40
2016-09-06T10:35:10.380Z,35
2016-09-06T10:36:10.407Z,35
2016-09-06T10:37:10.434Z,40
2016-09-06T10:38:10.496Z,40
2016-09-06T10:39:10.496Z,35
2016-09-06T10:40:10.827Z,30
2016-09-06T10:41:10.548Z,25
2016-09-06T10:42:10.557Z,25
2016-09-06T10:43:10.590Z,30
2016-09-06T10:44:10.613Z,25
2016-09-06T10:45:10.640Z,20
2016-09-06T10:46:10.661Z,15
2016-09-06T10:47:10.693Z,25
2016-09-06T10:48:10.711Z,35
2016-09-06T10:49:10.743Z,35
2016-09-06T10:50:10.763Z,30
2016-09-06T10:51:10.794Z,35
2016-09-06T10:52:10.818Z,40
2016-09-06T10:53:10.847Z,55
2016-09-06T10:54:10.871Z,60
2016-09-06T10:55:10.900Z,50
2016-09-06T10:56:10.928Z,50
2016-09-06T10:57:10.950Z,45
2016-09-06T10:58:10.974Z,50
2016-09-06T10:59:11.315Z,35
2016-09-06T11:00:11.032Z,30
2016-09-06T11:01:11.060Z,25
2016-09-06T11:02:11.092Z,20
2016-09-06T11:03:11.114Z,20
2016-09-06T11:04:11.139Z,20
2016-09-06T11:05:11.160Z,25
2016-09-06T11:06:11.187Z,40
2016-09-06T11:07:11.213Z,35
2016-09-06T11:08:11.245Z,30
2016-09-06T11:09:11.293Z,30
2016-09-06T11:10:11.297Z,30
2016-09-06T11:11:11.318Z,30
2016-09-06T11:12:11.353Z,20
2016-09-06T11:13:11.371Z,20
2016-09-06T11:14:11.736Z,25
2016-09-06T11:15:11.422Z,30
2016-09-06T11:16:11.457Z,30
2016-09-06T11:17:11.479Z,45
2016-09-06T11:18:11.512Z,60
2016-09-06T11:19:11.540Z,60
2016-09-06T11:20:11.562Z,55
2016-09-06T11:21:11.587Z,55
2016-09-06T11:22:11.615Z,60
2016-09-06T11:23:11.642Z,55
2016-09-06T11:24:11.671Z,45
2016-09-06T11:25:11.692Z,40
2016-09-06T11:26:11.731Z,45
2016-09-06T11:27:11.749Z,50
2016-09-06T11:28:12.325Z,50
2016-09-06T11:29:11.808Z,45
2016-09-06T11:30:11.833Z,30
2016-09-06T11:31:11.857Z,35
2016-09-06T11:32:11.995Z,30
2016-09-06T11:33:12.006Z,35
2016-09-06T11:34:12.031Z,45
2016-09-06T11:35:12.205Z,45
2016-09-06T11:36:12.213Z,45
2016-09-06T11:37:12.234Z,40
2016-09-06T11:38:12.239Z,35
2016-09-06T11:39:12.247Z,35
2016-09-06T11:40:12.248Z,40
2016-09-06T11:41:12.298Z,35
2016-09-06T11:42:12.308Z,30
2016-09-06T11:43:12.300Z,25
2016-09-06T11:44:12.314Z,25
2016-09-06T11:45:12.346Z,25
2016-09-06T11:46:12.370Z,25
2016-09-06T11:47:12.375Z,25
2016-09-06T11:48:12.719Z,25
2016-09-06T11:49:12.405Z,20
2016-09-06T11:50:12.420Z,25
2016-09-06T11:51:12.426Z,25
2016-09-06T11:52:12.436Z,30
2016-09-06T11:53:12.456Z,30
2016-09-06T11:54:12.498Z,35
2016-09-06T11:55:12.514Z,45
2016-09-06T11:56:12.553Z,50
2016-09-06T11:57:12.576Z,50
2016-09-06T11:58:12.607Z,55
2016-09-06T11:59:12.623Z,60
2016-09-06T12:00:12.657Z,55
2016-09-06T12:01:12.684Z,55
2016-09-06T12:02:12.718Z,55
2016-09-06T12:03:12.751Z,50
2016-09-06T12:04:12.769Z,50
2016-09-06T12:05:12.803Z,50
2016-09-06T12:06:12.824Z,45
2016-09-06T12:07:12.855Z,45
2016-09-06T12:08:12.877Z,45
2016-09-06T12:09:12.908Z,40
2016-09-06T12:10:12.933Z,40
2016-09-06T12:11:12.966Z,45
2016-09-06T12:12:12.995Z,45
2016-09-06T12:13:13.022Z,45
2016-09-06T12:14:13.049Z,45
2016-09-06T12:15:13.077Z,45
2016-09-06T12:16:13.111Z,50
2016-09-06T12:17:13.133Z,55
2016-09-06T12:18:13.161Z,55
2016-09-06T12:19:13.208Z,55
2016-09-06T12:20:13.224Z,40
2016-09-06T12:21:13.243Z,35
2016-09-06T12:22:13.278Z,35
2016-09-06T12:23:13.305Z,40
2016-09-06T12:24:13.334Z,40
2016-09-06T12:25:13.362Z,40
2016-09-06T12:26:13.394Z,30
2016-09-06T12:27:13.415Z,25
2016-09-06T12:28:13.451Z,30
2016-09-06T12:29:13.473Z,35
2016-09-06T12:30:13.821Z,35
2016-09-06T12:31:13.530Z,30
2016-09-06T12:32:13.564Z,25
2016-09-06T12:33:13.595Z,30
2016-09-06T12:34:13.614Z,25
2016-09-06T12:35:13.644Z,30
2016-09-06T12:36:13.670Z,35
2016-09-06T12:37:13.701Z,35
2016-09-06T12:38:13.729Z,40
2016-09-06T12:39:13.762Z,45
2016-09-06T12:40:13.784Z,50
2016-09-06T12:41:13.815Z,45
2016-09-06T12:42:13.839Z,40
2016-09-06T12:43:13.870Z,35
2016-09-06T12:44:13.897Z,35
2016-09-06T12:45:13.934Z,30
2016-09-06T12:46:14.069Z,25
2016-09-06T12:47:14.078Z,25
2016-09-06T12:48:14.239Z,20
2016-09-06T12:49:14.253Z,25
2016-09-06T12:50:14.260Z,25
2016-09-06T12:51:14.275Z,25
2016-09-06T12:52:14.275Z,25
2016-09-06T12:53:14.277Z,25
2016-09-06T12:54:14.289Z,25
2016-09-06T12:55:14.444Z,30
2016-09-06T12:56:14.444Z,30
2016-09-06T12:57:14.601Z,25
2016-09-06T12:58:14.396Z,25
2016-09-06T12:59:14.397Z,20
2016-09-06T13:00:14.434Z,20
2016-09-06T13:01:14.434Z,20
2016-09-06T13:02:14.439Z,20
2016-09-06T13:03:14.453Z,20
2016-09-06T13:04:14.479Z,20
2016-09-06T13:05:14.508Z,20
2016-09-06T13:06:14.536Z,20
2016-09-06T13:07:14.571Z,20
2016-09-06T13:08:14.608Z,20
2016-09-06T13:09:14.622Z,20
2016-09-06T13:10:14.646Z,20
2016-09-06T13:11:14.691Z,20
2016-09-06T13:12:14.705Z,20
2016-09-06T13:13:14.741Z,25
2016-09-06T13:14:14.763Z,25
2016-09-06T13:15:14.793Z,25
2016-09-06T13:16:14.825Z,25
2016-09-06T13:17:14.845Z,30
2016-09-06T13:18:14.882Z,35
2016-09-06T13:19:14.906Z,35
2016-09-06T13:20:14.947Z,35
2016-09-06T13:21:14.971Z,45
2016-09-06T13:22:14.995Z,45
2016-09-06T13:23:15.031Z,45
2016-09-06T13:24:15.058Z,45
2016-09-06T13:25:15.081Z,45
2016-09-06T13:26:15.114Z,35
2016-09-06T13:27:15.135Z,30
2016-09-06T13:28:15.168Z,25
2016-09-06T13:29:15.202Z,25
2016-09-06T13:30:15.226Z,25
2016-09-06T13:31:15.567Z,25
2016-09-06T13:32:15.288Z,25
2016-09-06T13:33:15.309Z,25
2016-09-06T13:34:15.658Z,20
2016-09-06T13:35:15.370Z,20
2016-09-06T13:36:15.402Z,20
2016-09-06T13:37:15.430Z,20
2016-09-06T13:38:15.466Z,20
2016-09-06T13:39:15.491Z,20
2016-09-06T13:40:15.521Z,20
2016-09-06T13:41:15.554Z,15
2016-09-06T13:42:15.575Z,15
2016-09-06T13:43:15.602Z,20
2016-09-06T13:44:15.652Z,25
2016-09-06T13:45:15.664Z,25
2016-09-06T13:46:15.697Z,30
2016-09-06T13:47:15.723Z,35
2016-09-06T13:48:15.759Z,50
2016-09-06T13:49:15.782Z,50
2016-09-06T13:50:15.812Z,50
2016-09-06T13:51:15.845Z,50
2016-09-06T13:52:15.974Z,50
2016-09-06T13:53:15.902Z,50
2016-09-06T13:54:16.244Z,50
2016-09-06T13:55:15.958Z,45
2016-09-06T13:56:15.994Z,45
2016-09-06T13:57:16.149Z,40
2016-09-06T13:58:16.163Z,40
2016-09-06T13:59:16.174Z,30
2016-09-06T14:00:16.206Z,25
2016-09-06T14:01:16.385Z,20
2016-09-06T14:02:16.290Z,25
2016-09-06T14:03:16.304Z,20
2016-09-06T14:04:16.443Z,25
2016-09-06T14:05:16.439Z,25
2016-09-06T14:06:16.457Z,25
2016-09-06T14:07:16.468Z,25
2016-09-06T14:08:16.473Z,25
2016-09-06T14:09:16.483Z,25
2016-09-06T14:10:16.488Z,25
2016-09-06T14:11:16.530Z,25
2016-09-06T14:12:16.543Z,25
2016-09-06T14:13:16.573Z,25
2016-09-06T14:14:16.582Z,25
2016-09-06T14:15:16.557Z,25
2016-09-06T14:16:16.894Z,25
2016-09-06T14:17:16.618Z,25
2016-09-06T14:18:16.648Z,25
2016-09-06T14:19:16.675Z,25
2016-09-06T14:20:16.702Z,25
2016-09-06T14:21:16.744Z,25
2016-09-06T14:22:16.761Z,25
2016-09-06T14:23:16.798Z,25
2016-09-06T14:24:16.823Z,25
2016-09-06T14:25:16.859Z,25
2016-09-06T14:26:16.885Z,25
2016-09-06T14:27:16.916Z,25
2016-09-06T14:28:16.948Z,25
2016-09-06T14:29:16.975Z,25